createdAt,value
2023-02-26T00:00:02.926Z,80
2023-02-26T00:20:02.456Z,80
2023-02-26T00:40:02.537Z,80
2023-02-26T01:00:03.041Z,80
2023-02-26T01:20:02.656Z,80
2023-02-26T01:40:02.922Z,80
2023-02-26T02:00:02.175Z,80
2023-02-26T02:20:02.632Z,79
2023-02-26T02:40:02.958Z,79
2023-02-26T03:00:02.261Z,79
2023-02-26T03:20:02.715Z,79
2023-02-26T03:40:03.018Z,79
2023-02-26T04:00:02.365Z,79
2023-02-26T04:20:03.143Z,79
2023-02-26T04:40:02.509Z,78
2023-02-26T05:00:02.891Z,78
2023-02-26T05:20:02.282Z,77
2023-02-26T05:40:02.773Z,77
2023-02-26T06:00:03.001Z,77
2023-02-26T06:20:02.789Z,77
2023-02-26T06:40:03.064Z,76
2023-02-26T07:00:02.476Z,76
2023-02-26T07:20:02.922Z,76
2023-02-26T07:40:02.446Z,75
2023-02-26T08:00:02.848Z,75
2023-02-26T08:20:03.087Z,75
2023-02-26T08:40:02.453Z,74
2023-02-26T09:00:03.049Z,72
2023-02-26T09:20:02.647Z,69
2023-02-26T09:40:03.658Z,66
2023-02-26T10:00:08.906Z,63
2023-02-26T10:20:02.242Z,61
2023-02-26T10:40:02.660Z,58
2023-02-26T11:00:02.970Z,57
2023-02-26T11:20:02.596Z,56
2023-02-26T11:40:02.897Z,55
2023-02-26T12:00:02.234Z,54
2023-02-26T12:20:02.903Z,55
2023-02-26T12:40:02.357Z,54
2023-02-26T13:00:03.603Z,53
2023-02-26T13:20:03.174Z,51
2023-02-26T13:40:02.904Z,51
2023-02-26T14:00:02.338Z,52
2023-02-26T14:20:03.157Z,52
2023-02-26T14:40:02.917Z,52
2023-02-26T15:00:02.688Z,52
2023-02-26T15:20:03.223Z,52
2023-02-26T15:40:02.673Z,52
2023-02-26T16:00:03.288Z,52
2023-02-26T16:20:03.044Z,52
2023-02-26T16:40:02.404Z,53
2023-02-26T17:00:02.808Z,54
2023-02-26T17:20:02.915Z,56
2023-02-26T17:40:02.395Z,56
2023-02-26T18:00:02.962Z,56
2023-02-26T18:20:02.756Z,57
2023-02-26T18:40:03.135Z,57
2023-02-26T19:00:02.539Z,58
2023-02-26T19:20:02.490Z,58
2023-02-26T19:40:02.907Z,59
2023-02-26T20:00:03.999Z,59
2023-02-26T20:20:02.689Z,60
2023-02-26T20:40:03.099Z,61
2023-02-26T21:00:03.292Z,61
2023-02-26T21:20:02.879Z,62
2023-02-26T21:40:02.942Z,62
2023-02-26T22:00:03.090Z,62
2023-02-26T22:20:02.811Z,63
2023-02-26T22:40:03.129Z,63
2023-02-26T23:00:02.512Z,63
2023-02-26T23:20:02.943Z,64
2023-02-26T23:40:02.396Z,64
